Active alerts

Plymouth County
  Details for Plymouth County Special Weather Statement

My webcam more information My webcam


Thunder radar more information blitzortung!


Rain radar more information rain snow radar


Visit our other weather sites:

Template documentation
and downloads

And another site


You find our weather info also at:

Weather Underground

AWEKAS

Citizen Weather Observer Program (CWOP)

HAMweather, WeatherForYou, PWS Weather


Weather Underground History page Text

Daily Summary for October 23, 2018 Units:  English    Metric   Both
« Previous Day
Next Day »
Daily Weekly Monthly Yearly Custom
  Current: High: Low: Average:
Temperature: 51.4 °F TemperatureF °F 37.6 °F 47.1 °F
Dew Point: 50.4 °F DewpointF °F 35.4 °F 44.6 °F
Humidity: 96 % Humidity % 81 % 90 %
Wind Speed: 0 mph WindSpeedMPH mph 0 mph 0.1 mph
Wind Gust: 0 mph WindSpeedGustMPH mph - -
Wind:Calm - - South
Pressure: 29.90 in PressureIn in 29.90 in -
Precipitation: 0.88 in      
Historical Graphs
 
 
Tabular Data for October 23, 2018
Time Temperature Dew Point Pressure Wind Wind Speed Wind Gust Humidity Rainfall Rate (Hourly)
TemperatureF °F DewpointF °F PressureIn in Calm     Humidity % HourlyPrecipIn in
00:02 40.8 °F 37.2 °F 30.22 in Calm     87 % 0 in
00:12 40.6 °F 37 °F 30.22 in Calm     87 % 0 in
00:22 40.5 °F 37.2 °F 30.22 in Calm     88 % 0 in
00:32 40.3 °F 37 °F 30.22 in Calm     88 % 0 in
00:42 39.9 °F 36.9 °F 30.22 in Calm     89 % 0 in
00:52 39.4 °F 36.5 °F 30.22 in Calm     89 % 0 in
01:02 39 °F 36.3 °F 30.22 in Calm     90 % 0 in
01:12 38.7 °F 36 °F 30.22 in Calm     90 % 0 in
01:22 38.3 °F 36 °F 30.22 in Calm     91 % 0 in
01:32 37.9 °F 35.6 °F 30.22 in Calm     91 % 0 in
01:42 37.6 °F 35.4 °F 30.22 in Calm     92 % 0 in
01:52 37.8 °F 36 °F 30.22 in Calm     93 % 0 in
02:02 37.8 °F 36 °F 30.21 in Calm     93 % 0 in
02:12 37.6 °F 35.8 °F 30.21 in Calm     93 % 0 in
02:22 37.6 °F 35.8 °F 30.21 in Calm     93 % 0 in
02:32 37.8 °F 36.1 °F 30.20 in Calm     94 % 0 in
02:42 37.9 °F 36.3 °F 30.20 in Calm     94 % 0 in
02:52 38.3 °F 36.7 °F 30.20 in Calm     94 % 0 in
03:02 38.7 °F 37 °F 30.20 in Calm     94 % 0 in
03:12 38.8 °F 37.2 °F 30.19 in Calm     94 % 0 in
03:22 39.2 °F 37.6 °F 30.19 in Calm     94 % 0 in
03:32 39.7 °F 38.1 °F 30.19 in Calm     94 % 0 in
03:42 39.9 °F 38.3 °F 30.19 in Calm     94 % 0 in
03:52 40.1 °F 38.5 °F 30.19 in Calm     94 % 0 in
04:02 40.3 °F 38.7 °F 30.19 in Calm     94 % 0 in
04:12 40.5 °F 38.8 °F 30.18 in Calm     94 % 0 in
04:22 40.6 °F 39 °F 30.18 in Calm     94 % 0 in
04:32 40.8 °F 39 °F 30.18 in Calm     93 % 0 in
04:42 40.8 °F 39 °F 30.18 in Calm     93 % 0 in
04:52 41 °F 39.2 °F 30.18 in Calm     93 % 0 in
05:02 41 °F 39.2 °F 30.18 in Calm     93 % 0 in
05:12 41.2 °F 39.4 °F 30.18 in Calm     93 % 0 in
05:22 41.2 °F 39.4 °F 30.18 in Calm     93 % 0 in
05:32 41.4 °F 39.7 °F 30.18 in Calm     94 % 0 in
05:42 41.4 °F 39.6 °F 30.18 in Calm     93 % 0 in
05:52 41.5 °F 39.7 °F 30.18 in Calm     93 % 0 in
06:02 41.5 °F 39.7 °F 30.17 in Calm     93 % 0 in
06:12 41.5 °F 39.9 °F 30.17 in Calm     94 % 0 in
06:22 41.7 °F 39.9 °F 30.17 in Calm     93 % 0 in
06:32 42.3 °F 40.6 °F 30.17 in Calm     94 % 0 in
06:42 42.4 °F 40.6 °F 30.17 in Calm     93 % 0 in
06:52 42.6 °F 40.8 °F 30.16 in Calm     93 % 0 in
07:02 42.6 °F 40.8 °F 30.16 in Calm     93 % 0 in
07:12 42.8 °F 41 °F 30.16 in Calm     93 % 0 in
07:22 42.8 °F 41 °F 30.16 in Calm     93 % 0 in
07:32 43 °F 41.2 °F 30.16 in Calm     93 % 0 in
07:42 43 °F 41.2 °F 30.16 in Calm     93 % 0 in
07:52 42.8 °F 41 °F 30.17 in Calm     93 % 0 in
08:02 43.3 °F 41.7 °F 30.16 in Calm     94 % 0 in
08:12 43.7 °F 42.1 °F 30.16 in Calm     94 % 0 in
08:22 44.1 °F 42.1 °F 30.16 in Calm     93 % 0 in
08:32 44.4 °F 42.8 °F 30.16 in Calm     94 % 0 in
08:42 45.3 °F 43.7 °F 30.16 in Calm     94 % 0 in
08:52 46 °F 44.1 °F 30.16 in Calm     93 % 0 in
09:02 46.8 °F 44.8 °F 30.15 in Calm     93 % 0 in
09:12 47.5 °F 45.5 °F 30.15 in Calm     93 % 0 in
09:22 48 °F 45.9 °F 30.15 in Calm     92 % 0 in
09:32 48.7 °F 46.2 °F 30.15 in Calm     91 % 0 in
09:42 49.6 °F 47.1 °F 30.15 in Calm     91 % 0 in
09:52 50.5 °F 47.5 °F 30.14 in Calm     89 % 0 in
10:02 51.1 °F 47.7 °F 30.14 in Calm     88 % 0 in
10:12 51.6 °F 48.2 °F 30.14 in Calm     88 % 0 in
10:22 52 °F 47.8 °F 30.14 in Calm   1 mph 86 % 0 in
10:32 52.3 °F 48.2 °F 30.14 in Calm   1 mph 86 % 0 in
10:42 52.7 °F 48.4 °F 30.13 in Calm   1 mph 85 % 0 in
10:52 53.1 °F 48.4 °F 30.13 in Calm   1 mph 84 % 0 in
11:02 53.6 °F 48.9 °F 30.12 in SE 0.9 mph 2 mph 84 % 0 in
11:12 54.3 °F 49.3 °F 30.12 in SE 0.9 mph 3 mph 83 % 0 in
11:22 54.7 °F 49.6 °F 30.11 in Calm   1 mph 83 % 0 in
11:32 54.7 °F 49.3 °F 30.11 in ESE 0.9 mph 2 mph 82 % 0 in
11:42 54.9 °F 49.5 °F 30.11 in Calm   2 mph 82 % 0 in
11:52 54.9 °F 49.5 °F 30.11 in Calm   2 mph 82 % 0 in
12:02 55 °F 49.6 °F 30.10 in SSW 0.9 mph 1 mph 82 % 0 in
12:12 55 °F 49.6 °F 30.09 in SSE 0.9 mph 4 mph 82 % 0 in
12:22 55.4 °F 50 °F 30.09 in Calm   1 mph 82 % 0 in
12:32 55.9 °F 50.2 °F 30.08 in Calm   3 mph 81 % 0 in
12:42 56.1 °F 50.4 °F 30.08 in SW 0.9 mph 1 mph 81 % 0 in
12:52 56.5 °F 51.1 °F 30.07 in Calm   1 mph 82 % 0 in
13:02 56.7 °F 51.3 °F 30.06 in Calm   1 mph 82 % 0 in
13:12 56.8 °F 51.4 °F 30.05 in SE 0.9 mph 1 mph 82 % 0 in
13:22 56.8 °F 51.8 °F 30.04 in Calm   1 mph 83 % 0 in
13:32 56.8 °F 52.3 °F 30.03 in Calm   1 mph 85 % 0 in
13:42 56.1 °F 52.3 °F 30.03 in Calm   2 mph 87 % 0 in
13:52 55.9 °F 52.5 °F 30.02 in Calm     88 % 0 in
14:02 56.1 °F 52.7 °F 30.02 in Calm   1 mph 88 % 0 in
14:12 56.7 °F 52.9 °F 30.01 in Calm     87 % 0 in
14:22 56.8 °F 52.7 °F 30.00 in Calm     86 % 0 in
14:32 57 °F 52.9 °F 30.00 in Calm     86 % 0 in
14:42 56.7 °F 52.9 °F 29.99 in SSW 0.9 mph 1 mph 87 % 0 in
14:52 55.2 °F 52 °F 29.99 in WNW 6 mph 6 mph 89 % 0.1 in
15:02 54 °F 51.6 °F 29.99 in WSW 0.9 mph 2 mph 92 % 0.21 in
15:12 52.9 °F 50.9 °F 29.98 in Calm   1 mph 93 % 0.37 in
15:22 52.5 °F 50.9 °F 29.98 in WSW 0.9 mph 1 mph 94 % 0.62 in
15:32 52.3 °F 50.9 °F 29.96 in Calm     95 % 0.73 in
15:42 52.5 °F 51.1 °F 29.96 in Calm     95 % 0.73 in
15:52 53.2 °F 52.2 °F 29.96 in Calm     96 % 0.63 in
16:02 53.8 °F 52.7 °F 29.95 in Calm   1 mph 96 % 0.52 in
16:12 54.1 °F 53.1 °F 29.95 in Calm     96 % 0.36 in
16:22 54.5 °F 53.4 °F 29.94 in Calm     96 % 0.11 in
16:32 54.7 °F 53.6 °F 29.93 in Calm     96 % 0 in
16:42 54.7 °F 53.6 °F 29.93 in Calm     96 % 0 in
16:52 54.7 °F 53.6 °F 29.92 in Calm     96 % 0 in
17:02 54.7 °F 53.6 °F 29.93 in Calm   7 mph 96 % 0.01 in
17:12 53.6 °F 52.2 °F 29.93 in Calm     95 % 0.01 in
17:22 52.9 °F 51.4 °F 29.92 in Calm     95 % 0.02 in
17:32 52.7 °F 51.6 °F 29.92 in Calm     96 % 0.04 in
17:42 52.9 °F 51.8 °F 29.91 in Calm   1 mph 96 % 0.13 in
17:52 52.7 °F 51.6 °F 29.91 in Calm   1 mph 96 % 0.14 in
18:02 52.5 °F 51.4 °F 29.90 in Calm     96 % 0.14 in
18:12 52.2 °F 51.1 °F 29.90 in Calm     96 % 0.14 in
18:22 52 °F 50.9 °F 29.90 in Calm     96 % 0.13 in
18:32 51.6 °F 50.5 °F 29.90 in Calm     96 % 0.11 in
18:42 51.4 °F 50.4 °F 29.90 in Calm     96 % 0.02 in
West Wareham, MA Weather
Compliments of Weather Underground - 4 mb

Script developed by  Jim McMurry - jmcmurry@mwt.net Adapted for the template by  Wim van der Kuil - Leuven-Template.eu

Equipment we use:

Weather-station
Davis Vantage Vue

Weather-program
Meteobridge

Weather-server
TP-LINK TL-MR3020

Provider
Web Hosting By

Davis Vantage Vue

Meteobridge

TP-LINK TL-MR3020

Web Hosting By